createdAt,value
2018-09-06T00:00:19.105Z,99.99
2018-09-06T00:01:19.105Z,99.99
2018-09-06T00:02:19.126Z,99.99
2018-09-06T00:03:19.106Z,99.99
2018-09-06T00:04:19.113Z,99.99
2018-09-06T00:05:19.109Z,99.99
2018-09-06T00:06:19.111Z,99.99
2018-09-06T00:07:19.106Z,99.99
2018-09-06T00:08:19.110Z,99.99
2018-09-06T00:09:19.108Z,99.99
2018-09-06T00:10:19.112Z,99.99
2018-09-06T00:11:19.113Z,99.99
2018-09-06T00:12:19.111Z,99.99
2018-09-06T00:13:19.109Z,99.99
2018-09-06T00:14:19.111Z,99.99
2018-09-06T00:15:19.109Z,99.99
2018-09-06T00:16:19.112Z,99.99
2018-09-06T00:17:19.113Z,99.99
2018-09-06T00:18:19.112Z,99.99
2018-09-06T00:19:19.114Z,99.99
2018-09-06T00:20:19.116Z,99.99
2018-09-06T00:21:19.113Z,99.99
2018-09-06T00:22:19.114Z,99.99
2018-09-06T00:23:19.114Z,99.99
2018-09-06T00:24:19.117Z,99.99
2018-09-06T00:25:19.121Z,99.99
2018-09-06T00:26:19.117Z,99.99
2018-09-06T00:27:19.116Z,99.99
2018-09-06T00:28:19.121Z,99.99
2018-09-06T00:29:19.119Z,99.99
2018-09-06T00:30:19.122Z,99.99
2018-09-06T00:31:19.119Z,99.99
2018-09-06T00:32:19.121Z,99.99
2018-09-06T00:33:19.121Z,99.99
2018-09-06T00:34:19.120Z,99.99
2018-09-06T00:35:19.121Z,99.99
2018-09-06T00:36:19.121Z,99.99
2018-09-06T00:37:19.121Z,99.99
2018-09-06T00:38:19.121Z,99.99
2018-09-06T00:39:19.124Z,99.99
2018-09-06T00:40:19.122Z,99.99
2018-09-06T00:41:19.122Z,99.99
2018-09-06T00:42:19.127Z,99.99
2018-09-06T00:43:19.122Z,99.99
2018-09-06T00:44:19.126Z,99.99
2018-09-06T00:45:19.124Z,99.99
2018-09-06T00:46:19.122Z,99.99
2018-09-06T00:47:19.124Z,99.99
2018-09-06T00:48:19.129Z,99.99
2018-09-06T00:49:19.125Z,99.99
2018-09-06T00:50:19.128Z,99.99
2018-09-06T00:51:19.123Z,99.99
2018-09-06T00:52:19.127Z,99.99
2018-09-06T00:53:19.125Z,99.99
2018-09-06T00:54:19.128Z,99.99
2018-09-06T00:55:19.125Z,99.99
2018-09-06T00:56:19.126Z,99.99
2018-09-06T00:57:19.126Z,99.99
2018-09-06T00:58:19.126Z,99.99
2018-09-06T00:59:19.127Z,99.99
2018-09-06T01:00:19.128Z,99.99
2018-09-06T01:01:19.128Z,99.99
2018-09-06T01:02:19.126Z,99.99
2018-09-06T01:03:19.128Z,99.99
2018-09-06T01:04:19.130Z,99.99
2018-09-06T01:05:19.126Z,99.99
2018-09-06T01:06:19.128Z,99.99
2018-09-06T01:07:19.126Z,99.99
2018-09-06T01:08:19.128Z,99.99
2018-09-06T01:09:19.128Z,99.99
2018-09-06T01:10:19.127Z,99.99
2018-09-06T01:11:19.129Z,99.99
2018-09-06T01:12:19.132Z,99.99
2018-09-06T01:13:19.129Z,99.99
2018-09-06T01:14:19.130Z,99.99
2018-09-06T01:15:19.130Z,99.99
2018-09-06T01:16:19.185Z,99.99
2018-09-06T01:17:19.137Z,99.99
2018-09-06T01:18:19.128Z,99.99
2018-09-06T01:19:19.138Z,99.99
2018-09-06T01:20:19.130Z,99.99
2018-09-06T01:21:19.136Z,99.99
2018-09-06T01:22:19.129Z,99.99
2018-09-06T01:23:19.131Z,99.99
2018-09-06T01:24:19.131Z,99.99
2018-09-06T01:25:19.134Z,99.99
2018-09-06T01:26:19.129Z,99.99
2018-09-06T01:27:19.130Z,99.99
2018-09-06T01:28:19.131Z,99.99
2018-09-06T01:29:19.134Z,99.99
2018-09-06T01:30:19.129Z,99.99
2018-09-06T01:31:19.132Z,99.99
2018-09-06T01:32:19.136Z,99.99
2018-09-06T01:33:19.136Z,99.99
2018-09-06T01:34:19.128Z,99.99
2018-09-06T01:35:19.133Z,99.99
2018-09-06T01:36:19.133Z,99.99
2018-09-06T01:37:19.135Z,99.99
2018-09-06T01:38:19.170Z,99.99
2018-09-06T01:39:19.134Z,99.99
2018-09-06T01:40:19.133Z,99.99
2018-09-06T01:41:19.136Z,99.99
2018-09-06T01:42:19.135Z,99.99
2018-09-06T01:43:19.134Z,99.99
2018-09-06T01:44:19.132Z,99.99
2018-09-06T01:45:19.137Z,99.99
2018-09-06T01:46:19.132Z,99.99
2018-09-06T01:47:19.132Z,99.99
2018-09-06T01:48:19.134Z,99.99
2018-09-06T01:49:19.133Z,99.99
2018-09-06T01:50:19.132Z,99.99
2018-09-06T01:51:19.130Z,99.99
2018-09-06T01:52:19.137Z,99.99
2018-09-06T01:53:19.131Z,99.99
2018-09-06T01:54:19.134Z,99.99
2018-09-06T01:55:19.130Z,99.99
2018-09-06T01:56:19.130Z,99.99
2018-09-06T01:57:19.135Z,99.99
2018-09-06T01:58:19.130Z,99.99
2018-09-06T01:59:19.129Z,99.99
2018-09-06T02:00:19.140Z,99.99
2018-09-06T02:01:19.133Z,99.99
2018-09-06T02:02:19.130Z,99.99
2018-09-06T02:03:19.133Z,99.99
2018-09-06T02:04:19.128Z,99.99
2018-09-06T02:05:19.144Z,99.99
2018-09-06T02:06:25.501Z,99.99
2018-09-06T02:07:25.404Z,99.99
2018-09-06T02:08:25.387Z,99.99
2018-09-06T02:09:25.393Z,99.99
2018-09-06T02:10:25.387Z,99.99
2018-09-06T02:11:25.388Z,99.99
2018-09-06T02:12:25.448Z,99.99
2018-09-06T02:13:25.391Z,99.99
2018-09-06T02:14:25.456Z,99.99
2018-09-06T02:15:25.387Z,99.99
2018-09-06T02:16:25.513Z,99.99
2018-09-06T02:17:25.389Z,99.99
2018-09-06T02:18:25.590Z,99.99
2018-09-06T02:19:25.384Z,99.99
2018-09-06T02:20:25.386Z,99.99
2018-09-06T02:21:25.396Z,99.99
2018-09-06T02:22:25.385Z,99.99
2018-09-06T02:23:25.388Z,99.99
2018-09-06T02:24:25.436Z,99.99
2018-09-06T02:25:25.387Z,99.99
2018-09-06T02:26:25.388Z,99.99
2018-09-06T02:27:25.385Z,99.99
2018-09-06T02:28:25.389Z,99.99
2018-09-06T02:29:25.384Z,99.99
2018-09-06T02:30:25.383Z,99.99
2018-09-06T02:31:25.409Z,99.99
2018-09-06T02:32:25.384Z,99.99
2018-09-06T02:33:25.381Z,99.99
2018-09-06T02:34:25.385Z,99.99
2018-09-06T02:35:25.382Z,99.99
2018-09-06T02:36:25.381Z,99.99
2018-09-06T02:37:25.384Z,99.99
2018-09-06T02:38:25.390Z,99.99
2018-09-06T02:39:25.382Z,99.99
2018-09-06T02:40:25.407Z,99.99
2018-09-06T02:41:25.382Z,99.99
2018-09-06T02:42:25.408Z,99.99
2018-09-06T02:43:25.379Z,99.99
2018-09-06T02:44:25.412Z,99.99
2018-09-06T02:45:25.383Z,99.99
2018-09-06T02:46:25.383Z,99.99
2018-09-06T02:47:25.380Z,99.99
2018-09-06T02:48:25.379Z,99.99
2018-09-06T02:49:25.383Z,99.99
2018-09-06T02:50:25.377Z,99.99
2018-09-06T02:51:25.382Z,99.99
2018-09-06T02:52:25.378Z,99.99
2018-09-06T02:53:25.385Z,99.99
2018-09-06T02:54:25.397Z,99.99
2018-09-06T02:55:25.376Z,99.99
2018-09-06T02:56:25.378Z,99.99
2018-09-06T02:57:25.379Z,99.99
2018-09-06T02:58:25.374Z,99.99
2018-09-06T02:59:25.408Z,99.99
2018-09-06T03:00:25.375Z,99.99
2018-09-06T03:01:25.388Z,99.99
2018-09-06T03:02:25.375Z,99.99
2018-09-06T03:03:25.381Z,99.99
2018-09-06T03:04:25.376Z,99.99
2018-09-06T03:05:25.371Z,99.99
2018-09-06T03:06:25.377Z,99.99
2018-09-06T03:07:25.385Z,99.99
2018-09-06T03:08:25.389Z,99.99
2018-09-06T03:09:25.379Z,99.99
2018-09-06T03:10:25.375Z,99.99
2018-09-06T03:11:25.372Z,99.99
2018-09-06T03:12:25.371Z,99.99
2018-09-06T03:13:25.372Z,99.99
2018-09-06T03:14:25.371Z,99.99
2018-09-06T03:15:25.437Z,99.99
2018-09-06T03:16:25.371Z,99.99
2018-09-06T03:17:25.367Z,99.99
2018-09-06T03:18:25.369Z,99.99
2018-09-06T03:19:25.382Z,99.99
2018-09-06T03:20:25.382Z,99.99
2018-09-06T03:21:25.370Z,99.99
2018-09-06T03:22:25.385Z,99.99
2018-09-06T03:23:25.390Z,99.99
2018-09-06T03:24:25.378Z,99.99
2018-09-06T03:25:25.368Z,99.99
2018-09-06T03:26:25.366Z,99.99
2018-09-06T03:27:25.365Z,99.99
2018-09-06T03:28:25.365Z,99.99
2018-09-06T03:29:25.377Z,99.99
2018-09-06T03:30:25.367Z,99.99
2018-09-06T03:31:26.965Z,99.99
2018-09-06T03:32:25.395Z,99.99
2018-09-06T03:33:25.365Z,99.99
2018-09-06T03:34:25.406Z,99.99
2018-09-06T03:35:25.362Z,99.99
2018-09-06T03:36:25.369Z,99.99
2018-09-06T03:37:25.367Z,99.99
2018-09-06T03:38:25.385Z,99.99
2018-09-06T03:39:25.377Z,99.99
2018-09-06T03:40:25.362Z,99.99
2018-09-06T03:41:25.360Z,99.99
2018-09-06T03:42:25.365Z,99.99
2018-09-06T03:43:25.358Z,99.99
2018-09-06T03:44:25.390Z,99.99
2018-09-06T03:45:25.364Z,99.99
2018-09-06T03:46:25.368Z,99.99
2018-09-06T03:47:25.361Z,99.99
2018-09-06T03:48:25.367Z,99.99
2018-09-06T03:49:25.361Z,99.99
2018-09-06T03:50:25.385Z,99.99
2018-09-06T03:51:25.361Z,99.99
2018-09-06T03:52:25.359Z,99.99
2018-09-06T03:53:25.370Z,99.99
2018-09-06T03:54:25.361Z,99.99
2018-09-06T03:55:25.362Z,99.99
2018-09-06T03:56:25.356Z,99.99
2018-09-06T03:57:25.354Z,99.99
2018-09-06T03:58:25.354Z,99.99
2018-09-06T03:59:25.353Z,99.99
2018-09-06T04:00:25.354Z,99.99
2018-09-06T04:01:25.353Z,99.99
2018-09-06T04:02:25.353Z,99.99
2018-09-06T04:03:25.351Z,99.99
2018-09-06T04:04:25.352Z,99.99
2018-09-06T04:05:25.359Z,99.99
2018-09-06T04:06:25.369Z,99.99
2018-09-06T04:07:25.355Z,99.99
2018-09-06T04:08:25.353Z,99.99
2018-09-06T04:09:25.376Z,99.99
2018-09-06T04:10:25.350Z,99.99
2018-09-06T04:11:25.347Z,99.99
2018-09-06T04:12:25.347Z,99.99
2018-09-06T04:13:25.362Z,99.99
2018-09-06T04:14:25.348Z,99.99
2018-09-06T04:15:25.348Z,99.99
2018-09-06T04:16:25.354Z,99.99
2018-09-06T04:17:25.350Z,99.99
2018-09-06T04:18:25.344Z,99.99
2018-09-06T04:19:25.347Z,99.99
2018-09-06T04:20:25.345Z,99.99
2018-09-06T04:21:25.497Z,99.99
2018-09-06T04:22:25.349Z,99.99
2018-09-06T04:23:25.394Z,99.99
2018-09-06T04:24:27.124Z,99.99
2018-09-06T04:25:25.350Z,99.99
2018-09-06T04:26:25.344Z,99.99
2018-09-06T04:27:25.345Z,99.99
2018-09-06T04:28:25.390Z,99.99
2018-09-06T04:29:25.344Z,99.99
2018-09-06T04:30:25.349Z,99.99
2018-09-06T04:31:25.346Z,99.99
2018-09-06T04:32:25.341Z,99.99
2018-09-06T04:33:25.344Z,99.99
2018-09-06T04:34:25.382Z,99.99
2018-09-06T04:35:25.382Z,99.99
2018-09-06T04:36:25.352Z,99.99
2018-09-06T04:37:25.338Z,99.99
2018-09-06T04:38:25.337Z,99.99
2018-09-06T04:39:25.336Z,99.99
2018-09-06T04:40:25.336Z,99.99
2018-09-06T04:41:25.338Z,99.99
2018-09-06T04:42:25.333Z,99.99
2018-09-06T04:43:25.332Z,99.99
2018-09-06T04:44:25.359Z,99.99
2018-09-06T04:45:25.332Z,99.99
2018-09-06T04:46:25.336Z,99.99
2018-09-06T04:47:25.335Z,99.99
2018-09-06T04:48:25.333Z,99.99
2018-09-06T04:49:25.347Z,99.99
2018-09-06T04:50:25.349Z,99.99
2018-09-06T04:51:25.364Z,99.99
2018-09-06T04:52:25.329Z,99.99
2018-09-06T04:53:25.333Z,99.99
2018-09-06T04:54:25.331Z,99.99
2018-09-06T04:55:25.423Z,99.99
2018-09-06T04:56:25.328Z,99.99
2018-09-06T04:57:25.329Z,99.99
2018-09-06T04:58:25.382Z,99.99
2018-09-06T04:59:25.329Z,99.99
2018-09-06T05:00:25.328Z,99.99
2018-09-06T05:01:25.328Z,99.99
2018-09-06T05:02:25.323Z,99.99
2018-09-06T05:03:25.326Z,99.99
2018-09-06T05:04:25.394Z,99.99
2018-09-06T05:05:25.329Z,99.99
2018-09-06T05:06:25.324Z,99.99
2018-09-06T05:07:25.326Z,99.99
2018-09-06T05:08:25.367Z,99.99
2018-09-06T05:09:25.352Z,99.99
2018-09-06T05:10:25.322Z,99.99
2018-09-06T05:11:25.324Z,99.99
2018-09-06T05:12:25.324Z,99.99
2018-09-06T05:13:25.325Z,99.99
2018-09-06T05:14:25.347Z,99.99
2018-09-06T05:15:25.366Z,99.99
2018-09-06T05:16:25.325Z,99.99
2018-09-06T05:17:25.346Z,99.99
2018-09-06T05:18:25.323Z,99.99
2018-09-06T05:19:25.316Z,99.99
2018-09-06T05:20:25.345Z,99.99
2018-09-06T05:21:25.319Z,99.99
2018-09-06T05:22:25.313Z,99.99
2018-09-06T05:23:25.315Z,99.99
2018-09-06T05:24:25.316Z,99.99
2018-09-06T05:25:25.324Z,99.99
2018-09-06T05:26:25.317Z,99.99
2018-09-06T05:27:25.319Z,99.99
2018-09-06T05:28:25.322Z,99.99
2018-09-06T05:29:25.311Z,99.99
2018-09-06T05:30:25.332Z,99.99
2018-09-06T05:31:25.313Z,99.99
2018-09-06T05:32:25.328Z,99.99
2018-09-06T05:33:25.332Z,99.99
2018-09-06T05:34:25.309Z,99.99
2018-09-06T05:35:25.312Z,99.99
2018-09-06T05:36:25.365Z,99.99
2018-09-06T05:37:25.310Z,99.99
2018-09-06T05:38:25.336Z,99.99
2018-09-06T05:39:25.308Z,99.99
2018-09-06T05:40:25.307Z,99.99
2018-09-06T05:41:25.308Z,99.99
2018-09-06T05:42:25.311Z,99.99
2018-09-06T05:43:25.312Z,99.99
2018-09-06T05:44:25.320Z,99.99
2018-09-06T05:45:25.341Z,99.99
2018-09-06T05:46:25.357Z,99.99
2018-09-06T05:47:25.375Z,99.99
2018-09-06T05:48:25.435Z,99.99
2018-09-06T05:49:25.339Z,99.99
2018-09-06T05:50:25.302Z,99.99
2018-09-06T05:51:25.307Z,99.99
2018-09-06T05:52:25.305Z,99.99
2018-09-06T05:53:25.327Z,99.99
2018-09-06T05:54:25.304Z,99.99
2018-09-06T05:55:25.309Z,99.99
2018-09-06T05:56:25.308Z,99.99
2018-09-06T05:57:25.310Z,99.99
2018-09-06T05:58:25.307Z,99.99
2018-09-06T05:59:25.350Z,99.99
2018-09-06T06:00:25.343Z,99.99
2018-09-06T06:01:25.315Z,99.99
2018-09-06T06:02:25.311Z,99.99
2018-09-06T06:03:25.335Z,99.99
2018-09-06T06:04:25.308Z,99.99
2018-09-06T06:05:25.362Z,99.99
2018-09-06T06:06:25.339Z,99.99
2018-09-06T06:07:25.305Z,99.99
2018-09-06T06:08:25.475Z,99.99
2018-09-06T06:09:25.310Z,99.99
2018-09-06T06:10:25.312Z,99.99
2018-09-06T06:11:25.309Z,99.99
2018-09-06T06:12:25.310Z,99.99
2018-09-06T06:13:25.320Z,99.99
2018-09-06T06:14:25.312Z,99.99
2018-09-06T06:15:25.311Z,99.99
2018-09-06T06:16:25.320Z,99.99
2018-09-06T06:17:25.382Z,99.99
2018-09-06T06:18:25.315Z,99.99
2018-09-06T06:19:25.322Z,99.99
2018-09-06T06:20:25.320Z,99.99
2018-09-06T06:21:25.372Z,99.99
2018-09-06T06:22:25.385Z,99.99
2018-09-06T06:23:25.319Z,99.99
2018-09-06T06:24:25.325Z,99.99
2018-09-06T06:25:25.351Z,99.99
2018-09-06T06:26:25.319Z,99.99
2018-09-06T06:27:25.331Z,99.99
2018-09-06T06:28:25.324Z,99.99
2018-09-06T06:29:25.324Z,99.99
2018-09-06T06:30:25.336Z,99.99
2018-09-06T06:31:25.328Z,99.99
2018-09-06T06:32:25.353Z,99.99
2018-09-06T06:33:25.327Z,99.99
2018-09-06T06:34:25.330Z,99.99
2018-09-06T06:35:25.352Z,99.99
2018-09-06T06:36:25.336Z,99.99
2018-09-06T06:37:25.336Z,99.99
2018-09-06T06:38:25.341Z,98.63
2018-09-06T06:39:25.338Z,96.32
2018-09-06T06:40:25.345Z,92.99
2018-09-06T06:41:25.346Z,89.57
2018-09-06T06:42:25.381Z,89.18
2018-09-06T06:43:25.348Z,89.23
2018-09-06T06:44:25.350Z,88.26
2018-09-06T06:45:25.355Z,86.91
2018-09-06T06:46:25.354Z,86.91
2018-09-06T06:47:25.359Z,84.69
2018-09-06T06:48:25.367Z,85.08
2018-09-06T06:49:25.369Z,84.93
2018-09-06T06:50:25.441Z,85.08
2018-09-06T06:51:25.373Z,84.79
2018-09-06T06:52:25.376Z,84.64
2018-09-06T06:53:25.383Z,84.20
2018-09-06T06:54:25.386Z,83.39
2018-09-06T06:55:25.390Z,82.61
2018-09-06T06:56:25.393Z,82.48
2018-09-06T06:57:25.412Z,83.48
2018-09-06T06:58:25.431Z,83.48
2018-09-06T06:59:25.413Z,81.20
2018-09-06T07:00:25.457Z,80.53
2018-09-06T07:01:25.440Z,80.33
2018-09-06T07:02:25.453Z,81.49
2018-09-06T07:03:25.428Z,80.24
2018-09-06T07:04:25.437Z,80.14
2018-09-06T07:05:25.438Z,79.70
2018-09-06T07:06:25.505Z,79.22
2018-09-06T07:07:25.452Z,78.38
2018-09-06T07:08:25.458Z,79.16
2018-09-06T07:09:25.462Z,79.06
2018-09-06T07:10:25.469Z,79.02
2018-09-06T07:11:25.478Z,81.07
2018-09-06T07:12:25.476Z,83.83
2018-09-06T07:13:25.478Z,86.00
2018-09-06T07:14:25.487Z,87.35
2018-09-06T07:15:25.500Z,88.22
2018-09-06T07:16:25.509Z,89.23
2018-09-06T07:17:25.581Z,90.10
2018-09-06T07:18:25.643Z,91.74
2018-09-06T07:19:25.540Z,94.06
2018-09-06T07:20:25.524Z,94.24
2018-09-06T07:21:25.532Z,94.20
2018-09-06T07:22:25.537Z,95.02
2018-09-06T07:23:25.540Z,97.14
2018-09-06T07:24:25.554Z,99.07
2018-09-06T07:25:25.556Z,99.99
2018-09-06T07:26:25.552Z,99.99
2018-09-06T07:27:25.570Z,99.99
2018-09-06T07:28:25.616Z,99.99
2018-09-06T07:29:25.576Z,99.99
2018-09-06T07:30:25.657Z,99.99
2018-09-06T07:31:25.607Z,99.99
2018-09-06T07:32:25.582Z,99.99
2018-09-06T07:33:25.593Z,99.99
2018-09-06T07:34:25.671Z,99.99
2018-09-06T07:35:25.617Z,99.99
2018-09-06T07:36:25.640Z,99.99
2018-09-06T07:37:25.638Z,99.99
2018-09-06T07:38:25.663Z,94.92
2018-09-06T07:39:25.648Z,90.47
2018-09-06T07:40:25.628Z,85.14
2018-09-06T07:41:25.663Z,81.35
2018-09-06T07:42:25.663Z,77.51
2018-09-06T07:43:27.584Z,76.78
2018-09-06T07:44:25.671Z,74.49
2018-09-06T07:45:25.657Z,72.19
2018-09-06T07:46:25.681Z,69.90
2018-09-06T07:47:25.783Z,70.00
2018-09-06T07:48:26.623Z,70.09
2018-09-06T07:49:25.707Z,69.60
2018-09-06T07:50:25.698Z,68.08
2018-09-06T07:51:25.776Z,67.70
2018-09-06T07:52:25.785Z,67.50
2018-09-06T07:53:25.776Z,66.08
2018-09-06T07:54:25.778Z,65.72
2018-09-06T07:55:25.798Z,64.00
2018-09-06T07:56:25.890Z,64.10
2018-09-06T07:57:25.753Z,61.51
2018-09-06T07:58:25.757Z,61.80
2018-09-06T07:59:25.764Z,61.21
2018-09-06T08:00:25.946Z,61.41
2018-09-06T08:01:25.872Z,60.60
2018-09-06T08:02:25.832Z,62.54
2018-09-06T08:03:25.966Z,62.03
2018-09-06T08:04:25.851Z,63.03
2018-09-06T08:05:27.673Z,62.45
2018-09-06T08:06:33.009Z,62.41
2018-09-06T08:08:19.285Z,62.64
2018-09-06T08:09:19.243Z,61.67
2018-09-06T08:11:15.379Z,63.00
2018-09-06T08:12:13.357Z,63.59
2018-09-06T08:13:15.245Z,62.90
2018-09-06T08:14:13.355Z,64.33
2018-09-06T08:15:13.483Z,65.17
2018-09-06T08:16:13.386Z,65.08
2018-09-06T08:17:13.521Z,65.37
2018-09-06T08:18:17.695Z,65.17
2018-09-06T08:19:16.061Z,64.53
2018-09-06T08:20:16.193Z,64.07
2018-09-06T08:23:24.401Z,62.93
2018-09-06T08:27:05.089Z,59.95
2018-09-06T08:27:57.997Z,60.08
2018-09-06T08:28:57.322Z,59.98
2018-09-06T08:31:40.846Z,58.22
2018-09-06T08:32:41.568Z,57.17
2018-09-06T08:33:40.674Z,57.17
2018-09-06T08:34:40.861Z,56.48
2018-09-06T08:35:42.787Z,56.41
2018-09-06T08:40:00.680Z,57.79
2018-09-06T08:44:48.006Z,60.46
2018-09-06T08:45:25.283Z,60.00
2018-09-06T09:00:53.837Z,66.56
2018-09-06T10:35:09.236Z,48.68
2018-09-06T10:41:42.020Z,49.85
2018-09-06T10:42:33.577Z,48.58
2018-09-06T10:43:30.400Z,48.36
2018-09-06T10:44:30.549Z,49.12
2018-09-06T10:45:30.360Z,51.75
2018-09-06T10:46:38.559Z,52.14
2018-09-06T10:48:24.668Z,52.57
2018-09-06T10:49:23.537Z,52.67
2018-09-06T10:51:17.526Z,52.25
2018-09-06T10:52:17.369Z,52.03
2018-09-06T10:54:12.826Z,52.52
2018-09-06T10:55:12.688Z,52.62
2018-09-06T10:56:12.564Z,52.91
2018-09-06T10:57:14.360Z,52.81
2018-09-06T10:58:13.026Z,52.72
2018-09-06T10:59:12.709Z,52.23
2018-09-06T11:00:12.674Z,52.81
2018-09-06T11:01:12.625Z,52.91
2018-09-06T11:02:14.274Z,53.49
2018-09-06T11:03:12.621Z,53.03
2018-09-06T11:04:20.579Z,52.74
2018-09-06T11:06:05.662Z,52.33
2018-09-06T11:07:05.697Z,51.38
2018-09-06T11:08:59.213Z,50.14
2018-09-06T11:09:59.168Z,49.49
2018-09-06T11:11:52.726Z,49.32
2018-09-06T11:12:52.536Z,47.78
2018-09-06T11:14:45.612Z,46.13
2018-09-06T11:15:45.438Z,45.35
2018-09-06T11:17:38.958Z,46.42
2018-09-06T11:18:39.858Z,44.48
2018-09-06T11:19:38.923Z,44.98
2018-09-06T11:20:38.892Z,44.40
2018-09-06T11:21:39.019Z,48.51
2018-09-06T11:22:51.325Z,51.73
2018-09-06T11:23:40.184Z,50.56
2018-09-06T11:24:39.209Z,50.82
2018-09-06T11:25:40.864Z,47.80
2018-09-06T11:26:38.919Z,45.08
2018-09-06T11:27:39.019Z,44.69
2018-09-06T11:28:38.889Z,44.20
2018-09-06T11:29:38.891Z,43.84
2018-09-06T11:30:38.898Z,43.05
2018-09-06T11:31:38.904Z,43.35
2018-09-06T11:32:38.998Z,43.64
2018-09-06T11:33:38.991Z,43.64
2018-09-06T11:34:38.983Z,43.85
2018-09-06T11:35:38.981Z,43.85
2018-09-06T11:36:39.067Z,43.76
2018-09-06T11:37:40.917Z,43.76
2018-09-06T11:38:40.899Z,43.57
2018-09-06T11:39:40.851Z,43.74
2018-09-06T11:40:39.012Z,46.47
2018-09-06T11:41:39.012Z,45.39
2018-09-06T11:42:39.069Z,45.45
2018-09-06T11:43:39.037Z,45.54
2018-09-06T11:44:40.849Z,44.67
2018-09-06T11:45:39.112Z,44.38
2018-09-06T11:46:39.902Z,43.71
2018-09-06T11:47:39.105Z,43.15
2018-09-06T11:48:39.087Z,43.25
2018-09-06T11:49:39.144Z,42.06
2018-09-06T11:50:39.150Z,42.06
2018-09-06T11:51:39.076Z,41.65
2018-09-06T11:52:39.084Z,43.21
2018-09-06T11:53:39.115Z,44.18
2018-09-06T11:54:39.112Z,45.32
2018-09-06T11:55:39.099Z,46.13
2018-09-06T11:56:42.793Z,46.30
2018-09-06T11:57:40.827Z,45.62
2018-09-06T11:58:40.332Z,45.04
2018-09-06T11:59:40.842Z,45.50
2018-09-06T12:00:48.460Z,45.28
2018-09-06T12:02:44.049Z,44.60
2018-09-06T12:03:35.325Z,45.45
2018-09-06T12:05:08.935Z,46.23
2018-09-06T12:06:29.581Z,47.88
2018-09-06T12:07:29.515Z,47.13
2018-09-06T12:08:33.131Z,46.74
2018-09-06T12:09:29.468Z,47.81
2018-09-06T12:10:29.481Z,46.64
2018-09-06T12:11:29.413Z,46.25
2018-09-06T12:12:29.415Z,46.74
2018-09-06T12:13:30.548Z,45.28
2018-09-06T12:14:29.444Z,45.69
2018-09-06T12:15:29.403Z,45.31
2018-09-06T12:16:29.421Z,45.91
2018-09-06T12:17:29.478Z,45.81
2018-09-06T12:18:29.423Z,45.42
2018-09-06T12:19:29.454Z,45.25
2018-09-06T12:20:29.551Z,45.94
2018-09-06T12:21:29.474Z,45.74
2018-09-06T12:22:29.452Z,45.25
2018-09-06T12:23:32.169Z,46.05
2018-09-06T12:24:36.749Z,44.89
2018-09-06T12:25:29.920Z,44.79
2018-09-06T12:26:29.570Z,45.74
2018-09-06T12:27:29.583Z,45.52
2018-09-06T12:28:29.886Z,45.23
2018-09-06T12:29:29.689Z,46.11
2018-09-06T12:30:29.524Z,45.52
2018-09-06T12:31:29.583Z,44.65
2018-09-06T12:32:29.662Z,44.67
2018-09-06T12:33:29.559Z,43.99
2018-09-06T12:34:29.541Z,44.28
2018-09-06T12:35:29.649Z,44.40
2018-09-06T12:36:29.560Z,44.89
2018-09-06T12:37:29.590Z,45.18
2018-09-06T12:38:29.568Z,43.81
2018-09-06T12:39:29.580Z,44.52
2018-09-06T12:40:29.584Z,44.30
2018-09-06T12:41:29.592Z,44.79
2018-09-06T12:42:29.692Z,44.79
2018-09-06T12:43:29.638Z,45.25
2018-09-06T12:44:29.617Z,45.72
2018-09-06T12:45:29.625Z,45.31
2018-09-06T12:46:29.633Z,47.15
2018-09-06T12:47:37.046Z,46.78
2018-09-06T12:49:23.892Z,45.84
2018-09-06T12:52:15.502Z,45.54
2018-09-06T12:53:06.535Z,46.71
2018-09-06T12:55:04.511Z,46.67
2018-09-06T12:56:04.142Z,46.37
2018-09-06T12:57:58.725Z,46.33
2018-09-06T12:58:58.876Z,46.23
2018-09-06T12:59:58.727Z,46.72
2018-09-06T13:00:58.741Z,47.40
2018-09-06T13:01:58.807Z,47.57
2018-09-06T13:02:58.699Z,47.47
2018-09-06T13:03:58.705Z,47.49
2018-09-06T13:05:05.945Z,47.78
2018-09-06T13:06:52.364Z,50.41
2018-09-06T13:07:52.697Z,50.70
2018-09-06T13:08:52.285Z,50.68
2018-09-06T13:09:52.189Z,51.57
2018-09-06T13:10:52.183Z,52.94
2018-09-06T13:11:52.161Z,54.03
2018-09-06T13:12:52.197Z,54.22
2018-09-06T13:13:52.179Z,55.29
2018-09-06T13:14:52.192Z,55.39
2018-09-06T13:15:52.265Z,54.61
2018-09-06T13:16:52.282Z,54.88
2018-09-06T13:17:52.204Z,54.78
2018-09-06T13:18:52.253Z,54.00
2018-09-06T13:19:52.236Z,54.07
2018-09-06T13:20:52.253Z,54.05
2018-09-06T13:21:52.245Z,54.05
2018-09-06T13:22:59.449Z,55.41
2018-09-06T13:24:45.868Z,53.59
2018-09-06T13:25:45.781Z,53.32
2018-09-06T13:27:39.860Z,49.76
2018-09-06T13:28:39.689Z,47.71
2018-09-06T13:30:32.732Z,48.30
2018-09-06T13:31:32.650Z,46.84
2018-09-06T13:32:32.508Z,47.71
2018-09-06T13:33:32.486Z,45.09
2018-09-06T13:34:32.506Z,45.28
2018-09-06T13:35:32.962Z,45.21
2018-09-06T13:36:32.468Z,45.50
2018-09-06T13:37:32.473Z,45.97
2018-09-06T13:38:32.481Z,46.14
2018-09-06T13:39:32.521Z,47.52
2018-09-06T13:40:32.546Z,47.42
2018-09-06T13:41:32.500Z,48.39
2018-09-06T13:42:32.516Z,49.27
2018-09-06T13:43:32.638Z,48.78
2018-09-06T13:44:32.549Z,49.17
2018-09-06T13:45:32.529Z,47.69
2018-09-06T13:46:32.535Z,46.23
2018-09-06T13:47:32.550Z,47.78
2018-09-06T13:48:32.546Z,47.01
2018-09-06T13:49:32.552Z,47.71
2018-09-06T13:50:32.580Z,47.52
2018-09-06T13:51:32.570Z,46.67
2018-09-06T13:52:32.575Z,46.37
2018-09-06T13:53:32.610Z,45.01
2018-09-06T13:54:32.584Z,44.43
2018-09-06T13:55:32.602Z,45.23
2018-09-06T13:56:32.714Z,45.23
2018-09-06T13:57:32.620Z,45.62
2018-09-06T13:58:32.691Z,44.94
2018-09-06T13:59:32.627Z,45.32
2018-09-06T14:00:32.633Z,46.37
2018-09-06T14:01:32.637Z,45.32
2018-09-06T14:02:32.765Z,45.01
2018-09-06T14:03:32.708Z,44.04
2018-09-06T14:04:32.731Z,44.33
2018-09-06T14:05:32.672Z,44.92
2018-09-06T14:06:32.721Z,45.31
2018-09-06T14:07:32.754Z,45.79
2018-09-06T14:08:32.752Z,44.89
2018-09-06T14:09:32.702Z,45.28
2018-09-06T14:10:32.757Z,45.18
2018-09-06T14:11:32.711Z,44.60
2018-09-06T14:12:32.710Z,44.99
2018-09-06T14:13:32.719Z,44.60
2018-09-06T14:14:32.722Z,44.78
2018-09-06T14:15:32.760Z,44.78
2018-09-06T14:16:32.850Z,45.55
2018-09-06T14:17:33.532Z,45.65
2018-09-06T14:18:32.754Z,46.42
2018-09-06T14:19:32.832Z,46.72
2018-09-06T14:20:32.838Z,47.20
2018-09-06T14:21:32.769Z,47.49
2018-09-06T14:22:32.781Z,46.81
2018-09-06T14:23:32.930Z,46.62
2018-09-06T14:24:33.677Z,46.41
2018-09-06T14:25:32.890Z,47.28
2018-09-06T14:26:32.871Z,46.98
2018-09-06T14:27:32.822Z,49.41
2018-09-06T14:28:32.822Z,49.90
2018-09-06T14:29:32.819Z,49.99
2018-09-06T14:30:32.826Z,49.22
2018-09-06T14:31:32.839Z,49.32
2018-09-06T14:32:32.868Z,50.29
2018-09-06T14:33:32.849Z,49.92
2018-09-06T14:34:32.855Z,48.66
2018-09-06T14:35:32.866Z,48.37
2018-09-06T14:36:32.869Z,49.44
2018-09-06T14:37:32.875Z,50.41
2018-09-06T14:38:32.916Z,51.67
2018-09-06T14:39:32.889Z,52.94
2018-09-06T14:40:32.898Z,52.06
2018-09-06T14:41:32.907Z,51.77
2018-09-06T14:42:32.932Z,50.48
2018-09-06T14:43:32.923Z,50.48
2018-09-06T14:44:32.950Z,50.38
2018-09-06T14:45:32.928Z,50.48
2018-09-06T14:46:32.933Z,50.09
2018-09-06T14:47:32.946Z,51.65
2018-09-06T14:48:32.948Z,51.93
2018-09-06T14:49:32.953Z,52.94
2018-09-06T14:50:32.983Z,52.62
2018-09-06T14:51:32.967Z,51.45
2018-09-06T14:52:33.081Z,53.49
2018-09-06T14:53:33.006Z,54.46
2018-09-06T14:54:33.041Z,52.52
2018-09-06T14:55:32.991Z,52.62
2018-09-06T14:56:33.058Z,52.40
2018-09-06T14:57:33.050Z,53.44
2018-09-06T14:58:33.012Z,53.53
2018-09-06T14:59:43.041Z,53.37
2018-09-06T15:00:33.095Z,53.66
2018-09-06T15:01:48.092Z,54.14
2018-09-06T15:02:59.175Z,54.24
2018-09-06T15:05:50.708Z,52.76
2018-09-06T15:06:51.193Z,51.69
2018-09-06T15:07:57.664Z,52.76
2018-09-06T15:09:55.386Z,53.92
2018-09-06T15:10:55.019Z,54.99
2018-09-06T15:12:47.856Z,55.28
2018-09-06T15:13:47.864Z,54.11
2018-09-06T15:15:40.800Z,55.26
2018-09-06T15:16:40.775Z,58.16
2018-09-06T15:18:33.631Z,55.26
2018-09-06T15:19:33.659Z,52.73
2018-09-06T15:21:26.585Z,51.35
2018-09-06T15:22:26.562Z,53.00
2018-09-06T15:24:19.455Z,55.22
2018-09-06T15:25:19.448Z,55.13